createdAt,value
2017-09-30T00:01:39.733Z,3.23
2017-09-30T00:04:07.238Z,4.70
2017-09-30T00:06:34.778Z,3.50
2017-09-30T00:09:02.934Z,4.50
2017-09-30T00:11:31.358Z,4.80
2017-09-30T00:13:58.873Z,4.17
2017-09-30T00:16:26.392Z,4.47
2017-09-30T00:18:54.677Z,3.70
2017-09-30T00:21:22.967Z,4.23
2017-09-30T00:23:51.832Z,4.93
2017-09-30T00:26:20.101Z,6.00
2017-09-30T00:28:47.594Z,3.97
2017-09-30T00:31:15.121Z,3.73
2017-09-30T00:33:43.424Z,4.17
2017-09-30T00:36:10.917Z,3.87
2017-09-30T00:38:38.517Z,3.70
2017-09-30T00:41:06.813Z,3.50
2017-09-30T00:43:34.344Z,2.80
2017-09-30T00:46:02.607Z,3.50
2017-09-30T00:48:30.100Z,3.37
2017-09-30T00:50:57.604Z,3.87
2017-09-30T00:53:25.108Z,3.27
2017-09-30T00:55:52.621Z,2.93
2017-09-30T00:58:20.247Z,3.23
2017-09-30T01:00:47.980Z,3.40
2017-09-30T01:03:16.325Z,3.27
2017-09-30T01:05:44.417Z,3.63
2017-09-30T01:08:13.594Z,3.00
2017-09-30T01:10:41.088Z,2.83
2017-09-30T01:13:08.613Z,4.73
2017-09-30T01:15:36.096Z,3.43
2017-09-30T01:18:04.586Z,2.93
2017-09-30T01:20:32.081Z,2.37
2017-09-30T01:22:59.576Z,2.77
2017-09-30T01:25:27.849Z,2.63
2017-09-30T01:27:55.344Z,2.40
2017-09-30T01:30:22.863Z,2.77
2017-09-30T01:32:51.125Z,2.90
2017-09-30T01:35:19.396Z,2.80
2017-09-30T01:37:46.913Z,2.73
2017-09-30T01:40:14.409Z,3.43
2017-09-30T01:42:42.021Z,3.10
2017-09-30T01:45:09.536Z,2.60
2017-09-30T01:47:37.038Z,3.20
2017-09-30T01:50:04.552Z,2.90
2017-09-30T01:52:32.816Z,2.60
2017-09-30T01:55:00.365Z,3.93
2017-09-30T01:57:27.847Z,2.63
2017-09-30T01:59:56.113Z,5.33
2017-09-30T02:02:23.626Z,2.93
2017-09-30T02:04:51.125Z,2.70
2017-09-30T02:07:18.657Z,2.63
2017-09-30T02:09:46.162Z,2.20
2017-09-30T02:12:13.769Z,3.10
2017-09-30T02:14:41.265Z,2.80
2017-09-30T02:17:09.532Z,2.97
2017-09-30T02:19:37.938Z,3.03
2017-09-30T02:22:05.443Z,2.77
2017-09-30T02:24:32.952Z,2.33
2017-09-30T02:27:00.486Z,2.17
2017-09-30T02:29:28.752Z,3.07
2017-09-30T02:31:56.251Z,2.60
2017-09-30T02:34:23.765Z,2.60
2017-09-30T02:36:51.260Z,3.10
2017-09-30T02:39:18.760Z,1.83
2017-09-30T02:41:46.264Z,3.20
2017-09-30T02:44:13.778Z,2.63
2017-09-30T02:46:41.280Z,2.13
2017-09-30T02:49:08.797Z,4.03
2017-09-30T02:51:36.296Z,1.90
2017-09-30T02:54:03.784Z,2.30
2017-09-30T02:56:31.400Z,4.07
2017-09-30T02:58:58.897Z,2.03
2017-09-30T03:01:26.400Z,1.97
2017-09-30T03:03:54.785Z,2.20
2017-09-30T03:06:23.047Z,2.50
2017-09-30T03:08:51.322Z,2.40
2017-09-30T03:11:19.599Z,3.47
2017-09-30T03:13:47.868Z,2.23
2017-09-30T03:16:15.483Z,1.90
2017-09-30T03:18:42.976Z,1.90
2017-09-30T03:21:10.484Z,3.73
2017-09-30T03:23:37.993Z,2.17
2017-09-30T03:26:05.493Z,2.30
2017-09-30T03:28:33.124Z,1.80
2017-09-30T03:31:01.394Z,3.13
2017-09-30T03:33:29.663Z,2.23
2017-09-30T03:35:57.952Z,5.40
2017-09-30T03:38:26.227Z,3.00
2017-09-30T03:40:54.648Z,2.00
2017-09-30T03:43:22.165Z,2.33
2017-09-30T03:45:50.416Z,2.20
2017-09-30T03:48:17.961Z,1.77
2017-09-30T03:50:45.469Z,1.77
2017-09-30T03:53:12.964Z,1.47
2017-09-30T03:55:40.497Z,2.53
2017-09-30T03:58:08.031Z,2.67
2017-09-30T04:00:35.537Z,1.80
2017-09-30T04:03:03.096Z,2.50
2017-09-30T04:05:30.610Z,2.27
2017-09-30T04:07:58.867Z,2.20
2017-09-30T04:10:27.185Z,3.00
2017-09-30T04:12:54.684Z,1.77
2017-09-30T04:15:22.222Z,1.93
2017-09-30T04:17:49.756Z,2.47
2017-09-30T04:20:17.261Z,2.10
2017-09-30T04:22:44.792Z,2.00
2017-09-30T04:25:12.289Z,3.67
2017-09-30T04:27:40.629Z,2.67
2017-09-30T04:30:08.121Z,2.90
2017-09-30T04:32:35.619Z,1.80
2017-09-30T04:35:03.147Z,1.80
2017-09-30T04:37:30.643Z,5.03
2017-09-30T04:39:58.136Z,1.87
2017-09-30T04:42:25.665Z,2.40
2017-09-30T04:44:53.157Z,1.83
2017-09-30T04:47:21.448Z,2.00
2017-09-30T04:49:48.972Z,1.93
2017-09-30T04:52:16.451Z,1.93
2017-09-30T04:54:44.749Z,2.70
2017-09-30T04:57:12.275Z,3.23
2017-09-30T04:59:40.605Z,2.03
2017-09-30T05:02:08.182Z,1.80
2017-09-30T05:04:35.723Z,2.10
2017-09-30T05:07:03.257Z,2.57
2017-09-30T05:09:30.811Z,3.27
2017-09-30T05:11:58.321Z,1.93
2017-09-30T05:14:25.827Z,2.80
2017-09-30T05:16:53.369Z,2.33
2017-09-30T05:19:20.876Z,2.50
2017-09-30T05:21:48.408Z,2.57
2017-09-30T05:24:15.900Z,2.97
2017-09-30T05:26:43.428Z,2.23
2017-09-30T05:29:10.928Z,2.73
2017-09-30T05:31:38.448Z,2.20
2017-09-30T05:34:05.981Z,6.20
2017-09-30T05:36:33.504Z,3.00
2017-09-30T05:39:01.764Z,3.47
2017-09-30T05:41:29.305Z,3.00
2017-09-30T05:43:56.800Z,3.40
2017-09-30T05:46:25.068Z,2.93
2017-09-30T05:48:53.371Z,2.40
2017-09-30T05:51:21.636Z,2.47
2017-09-30T05:53:49.915Z,2.90
2017-09-30T05:56:17.399Z,2.50
2017-09-30T05:58:44.908Z,7.80
2017-09-30T06:01:13.168Z,2.53
2017-09-30T06:03:40.662Z,3.10
2017-09-30T06:06:08.247Z,3.27
2017-09-30T06:08:35.739Z,2.80
2017-09-30T06:11:03.250Z,3.80
2017-09-30T06:13:30.744Z,2.53
2017-09-30T06:15:58.266Z,2.70
2017-09-30T06:18:25.779Z,2.20
2017-09-30T06:20:54.181Z,3.23
2017-09-30T06:23:21.691Z,2.77
2017-09-30T06:25:49.196Z,2.87
2017-09-30T06:28:16.721Z,2.77
2017-09-30T06:30:44.218Z,2.60
2017-09-30T06:33:11.728Z,2.30
2017-09-30T06:35:39.244Z,1.90
2017-09-30T06:38:06.771Z,2.83
2017-09-30T06:40:34.297Z,2.37
2017-09-30T06:43:01.826Z,2.70
2017-09-30T06:45:29.321Z,2.40
2017-09-30T06:47:56.821Z,2.50
2017-09-30T06:50:24.336Z,2.30
2017-09-30T06:52:51.828Z,2.47
2017-09-30T06:55:19.356Z,2.90
2017-09-30T06:57:47.636Z,1.93
2017-09-30T07:00:15.924Z,3.00
2017-09-30T07:02:43.424Z,2.73
2017-09-30T07:05:10.925Z,2.47
2017-09-30T07:07:39.204Z,2.53
2017-09-30T07:10:07.483Z,2.50
2017-09-30T07:12:35.756Z,2.03
2017-09-30T07:15:04.016Z,2.33
2017-09-30T07:17:31.521Z,1.97
2017-09-30T07:19:59.018Z,2.70
2017-09-30T07:22:26.542Z,2.20
2017-09-30T07:24:54.065Z,2.00
2017-09-30T07:27:21.596Z,2.33
2017-09-30T07:29:49.091Z,3.17
2017-09-30T07:32:16.575Z,2.40
2017-09-30T07:34:44.092Z,2.13
2017-09-30T07:37:11.580Z,2.00
2017-09-30T07:39:39.090Z,2.80
2017-09-30T07:42:07.367Z,2.40
2017-09-30T07:44:35.649Z,2.60
2017-09-30T07:47:03.915Z,1.90
2017-09-30T07:49:32.218Z,1.80
2017-09-30T07:51:59.721Z,1.90
2017-09-30T07:54:27.216Z,1.77
2017-09-30T07:56:54.732Z,1.93
2017-09-30T07:59:22.246Z,2.37
2017-09-30T08:01:49.778Z,1.80
2017-09-30T08:04:18.032Z,2.03
2017-09-30T08:06:45.563Z,2.10
2017-09-30T08:09:13.059Z,1.90
2017-09-30T08:11:41.331Z,1.70
2017-09-30T08:14:09.615Z,1.97
2017-09-30T08:16:37.104Z,1.63
2017-09-30T08:19:04.616Z,1.57
2017-09-30T08:21:32.898Z,1.83
2017-09-30T08:24:01.184Z,1.43
2017-09-30T08:26:29.459Z,2.00
2017-09-30T08:28:56.992Z,1.40
2017-09-30T08:31:24.485Z,2.20
2017-09-30T08:33:51.985Z,1.40
2017-09-30T08:36:19.496Z,1.60
2017-09-30T08:38:47.010Z,1.63
2017-09-30T08:41:14.515Z,1.50
2017-09-30T08:43:42.011Z,2.40
2017-09-30T08:46:09.526Z,1.70
2017-09-30T08:48:37.043Z,1.50
2017-09-30T08:51:04.570Z,1.20
2017-09-30T08:53:32.070Z,1.17
2017-09-30T08:56:00.340Z,1.50
2017-09-30T08:58:27.843Z,2.20
2017-09-30T09:00:55.346Z,1.57
2017-09-30T09:03:22.864Z,1.40
2017-09-30T09:05:50.436Z,1.43
2017-09-30T09:08:18.053Z,1.10
2017-09-30T09:10:45.567Z,1.60
2017-09-30T09:13:13.061Z,1.47
2017-09-30T09:15:40.652Z,3.73
2017-09-30T09:18:08.156Z,1.37
2017-09-30T09:20:35.670Z,1.50
2017-09-30T09:23:03.173Z,1.10
2017-09-30T09:25:30.698Z,1.27
2017-09-30T09:27:58.407Z,1.67
2017-09-30T09:30:26.013Z,1.90
2017-09-30T09:32:53.517Z,1.10
2017-09-30T09:35:21.785Z,1.40
2017-09-30T09:37:50.060Z,1.57
2017-09-30T09:40:18.316Z,1.80
2017-09-30T09:42:46.593Z,1.30
2017-09-30T09:45:14.108Z,1.67
2017-09-30T09:47:41.729Z,1.30
2017-09-30T09:50:10.017Z,1.57
2017-09-30T09:52:37.518Z,2.73
2017-09-30T09:55:05.030Z,1.20
2017-09-30T09:57:32.561Z,1.13
2017-09-30T10:00:00.848Z,0.97
2017-09-30T10:02:29.136Z,1.20
2017-09-30T10:04:56.637Z,1.50
2017-09-30T10:07:24.161Z,1.40
2017-09-30T10:09:51.660Z,1.87
2017-09-30T10:12:19.178Z,1.60
2017-09-30T10:14:46.686Z,1.50
2017-09-30T10:17:14.995Z,1.67
2017-09-30T10:19:42.512Z,1.37
2017-09-30T10:22:10.011Z,1.70
2017-09-30T10:24:37.520Z,1.33
2017-09-30T10:27:05.012Z,1.20
2017-09-30T10:29:32.538Z,1.37
2017-09-30T10:32:00.039Z,1.70
2017-09-30T10:34:27.571Z,1.57
2017-09-30T10:36:55.840Z,1.57
2017-09-30T10:39:24.116Z,1.60
2017-09-30T10:41:52.400Z,1.90
2017-09-30T10:44:20.676Z,1.87
2017-09-30T10:46:49.710Z,1.57
2017-09-30T10:49:17.208Z,1.80
2017-09-30T10:51:44.739Z,1.80
2017-09-30T10:54:18.154Z,2.17
2017-09-30T10:56:46.340Z,3.03
2017-09-30T10:59:14.606Z,2.20
2017-09-30T11:01:42.100Z,2.50
2017-09-30T11:04:09.609Z,2.47
2017-09-30T11:06:37.100Z,2.97
2017-09-30T11:09:05.442Z,2.03
2017-09-30T11:11:32.959Z,2.07
2017-09-30T11:14:00.459Z,2.37
2017-09-30T11:16:28.001Z,2.70
2017-09-30T11:18:55.502Z,2.53
2017-09-30T11:21:24.963Z,2.23
2017-09-30T11:23:52.538Z,2.00
2017-09-30T11:26:20.320Z,1.83
2017-09-30T11:28:49.321Z,2.20
2017-09-30T11:31:17.447Z,1.37
2017-09-30T11:33:46.181Z,2.07
2017-09-30T11:36:17.782Z,1.77
2017-09-30T11:38:47.517Z,1.80
2017-09-30T11:41:16.023Z,2.07
2017-09-30T11:43:43.903Z,2.20
2017-09-30T11:46:12.530Z,1.50
2017-09-30T11:48:41.300Z,2.00
2017-09-30T11:51:09.960Z,1.80
2017-09-30T11:53:38.841Z,1.80
2017-09-30T11:56:06.412Z,1.77
2017-09-30T11:58:33.918Z,2.00
2017-09-30T12:01:01.441Z,1.80
2017-09-30T12:03:29.719Z,2.37
2017-09-30T12:05:58.261Z,2.40
2017-09-30T12:08:25.768Z,2.10
2017-09-30T12:10:53.307Z,2.03
2017-09-30T12:13:20.801Z,1.90
2017-09-30T12:15:48.334Z,2.37
2017-09-30T12:18:16.628Z,2.00
2017-09-30T12:20:44.122Z,2.77
2017-09-30T12:23:11.665Z,2.50
2017-09-30T12:25:39.168Z,2.37
2017-09-30T12:28:07.449Z,1.93
2017-09-30T12:30:35.073Z,2.33
2017-09-30T12:33:02.624Z,2.30
2017-09-30T12:35:30.121Z,3.00
2017-09-30T12:37:58.384Z,2.03
2017-09-30T12:40:25.936Z,1.83
2017-09-30T12:42:54.209Z,2.17
2017-09-30T12:45:21.741Z,2.40
2017-09-30T12:47:55.650Z,1.60
2017-09-30T12:50:24.785Z,1.60
2017-09-30T12:52:52.509Z,1.70
2017-09-30T12:55:21.277Z,1.90
2017-09-30T12:57:51.255Z,2.53
2017-09-30T13:00:20.296Z,1.70
2017-09-30T13:02:49.208Z,1.80
2017-09-30T13:05:17.808Z,1.87
2017-09-30T13:07:46.225Z,1.90
2017-09-30T13:10:13.789Z,1.90
2017-09-30T13:12:42.385Z,1.77
2017-09-30T13:15:09.890Z,1.57
2017-09-30T13:17:43.835Z,2.17
2017-09-30T13:20:13.671Z,1.47
2017-09-30T13:22:44.048Z,1.83
2017-09-30T13:25:18.162Z,2.17
2017-09-30T13:27:45.929Z,2.10
2017-09-30T13:30:13.594Z,2.03
2017-09-30T13:32:53.142Z,2.27
2017-09-30T13:35:22.982Z,2.33
2017-09-30T13:37:52.205Z,1.67
2017-09-30T13:40:21.951Z,2.47
2017-09-30T13:42:50.621Z,1.87
2017-09-30T13:45:19.100Z,2.67
2017-09-30T13:47:47.655Z,2.37
2017-09-30T13:50:16.540Z,2.20
2017-09-30T13:52:44.525Z,2.13
2017-09-30T13:55:12.474Z,2.90
2017-09-30T13:57:41.207Z,2.20
2017-09-30T14:00:09.542Z,2.00
2017-09-30T14:02:39.113Z,2.70
2017-09-30T14:05:06.777Z,3.03
2017-09-30T14:07:34.285Z,2.33
2017-09-30T14:10:02.557Z,2.40
2017-09-30T14:12:30.101Z,2.53
2017-09-30T14:14:57.607Z,2.60
2017-09-30T14:17:25.117Z,3.20
2017-09-30T14:19:52.697Z,2.53
2017-09-30T14:22:21.003Z,3.10
2017-09-30T14:24:48.503Z,2.60
2017-09-30T14:27:16.897Z,3.27
2017-09-30T14:29:45.171Z,3.10
2017-09-30T14:32:12.714Z,3.20
2017-09-30T14:34:40.209Z,3.20
2017-09-30T14:37:07.756Z,3.20
2017-09-30T14:39:36.023Z,2.63
2017-09-30T14:42:04.312Z,3.37
2017-09-30T14:44:32.626Z,2.90
2017-09-30T14:47:00.127Z,2.90
2017-09-30T14:49:28.388Z,2.97
2017-09-30T14:51:55.918Z,3.80
2017-09-30T14:54:23.408Z,3.30
2017-09-30T14:56:50.935Z,3.53
2017-09-30T14:59:18.464Z,3.70
2017-09-30T15:01:45.965Z,3.93
2017-09-30T15:04:13.496Z,3.57
2017-09-30T15:06:41.037Z,4.07
2017-09-30T15:09:08.575Z,3.67
2017-09-30T15:11:36.848Z,3.23
2017-09-30T15:14:05.112Z,3.00
2017-09-30T15:16:33.401Z,3.10
2017-09-30T15:19:01.704Z,3.33
2017-09-30T15:21:29.269Z,4.57
2017-09-30T15:23:56.798Z,2.70
2017-09-30T15:26:24.331Z,3.50
2017-09-30T15:28:51.848Z,4.10
2017-09-30T15:31:19.345Z,3.07
2017-09-30T15:33:47.665Z,4.40
2017-09-30T15:36:15.209Z,3.93
2017-09-30T15:38:42.713Z,4.90
2017-09-30T15:41:10.219Z,3.20
2017-09-30T15:43:37.764Z,6.53
2017-09-30T15:46:06.029Z,3.47
2017-09-30T15:48:34.301Z,3.90
2017-09-30T15:51:02.622Z,4.30
2017-09-30T15:53:30.129Z,3.13
2017-09-30T15:55:58.408Z,4.50
2017-09-30T15:58:26.722Z,5.77
2017-09-30T16:00:54.253Z,2.53
2017-09-30T16:03:22.519Z,3.40
2017-09-30T16:05:50.836Z,3.63
2017-09-30T16:08:18.346Z,2.70
2017-09-30T16:10:45.847Z,3.30
2017-09-30T16:13:13.427Z,2.20
2017-09-30T16:15:41.003Z,2.33
2017-09-30T16:18:09.289Z,2.00
2017-09-30T16:20:37.648Z,1.80
2017-09-30T16:23:05.149Z,2.33
2017-09-30T16:25:33.403Z,1.63
2017-09-30T16:28:01.707Z,1.73
2017-09-30T16:30:29.203Z,2.30
2017-09-30T16:32:56.707Z,3.27
2017-09-30T16:35:24.250Z,3.13
2017-09-30T16:37:52.520Z,1.70
2017-09-30T16:40:20.802Z,1.43
2017-09-30T16:42:49.125Z,1.53
2017-09-30T16:45:16.628Z,1.30
2017-09-30T16:47:44.145Z,1.27
2017-09-30T16:50:11.732Z,1.00
2017-09-30T16:52:39.241Z,0.90
2017-09-30T16:55:06.802Z,1.10
2017-09-30T16:57:34.884Z,1.50
2017-09-30T17:00:02.401Z,1.37
2017-09-30T17:02:30.706Z,1.10
2017-09-30T17:04:58.213Z,1.27
2017-09-30T17:07:25.714Z,1.17
2017-09-30T17:09:53.236Z,0.60
2017-09-30T17:12:20.765Z,0.63
2017-09-30T17:14:48.294Z,0.60
2017-09-30T17:17:15.782Z,1.00
2017-09-30T17:19:43.283Z,0.73
2017-09-30T17:22:10.820Z,0.63
2017-09-30T17:24:46.534Z,1.53
2017-09-30T17:27:14.086Z,1.93
2017-09-30T17:29:42.606Z,0.97
2017-09-30T17:32:10.118Z,0.70
2017-09-30T17:34:37.640Z,0.80
2017-09-30T17:37:05.940Z,0.80
2017-09-30T17:39:33.479Z,1.20
2017-09-30T17:42:00.998Z,0.70
2017-09-30T17:44:28.540Z,0.60
2017-09-30T17:46:56.061Z,0.77
2017-09-30T17:49:23.584Z,0.60
2017-09-30T17:51:51.873Z,0.93
2017-09-30T17:54:20.136Z,0.87
2017-09-30T17:56:48.428Z,0.70
2017-09-30T17:59:15.975Z,0.53
2017-09-30T18:01:44.246Z,0.57
2017-09-30T18:04:12.543Z,0.50
2017-09-30T18:06:40.046Z,1.33
2017-09-30T18:09:07.608Z,0.80
2017-09-30T18:11:35.170Z,2.20
2017-09-30T18:14:02.676Z,1.23
2017-09-30T18:16:30.206Z,0.90
2017-09-30T18:18:58.486Z,0.70
2017-09-30T18:21:26.043Z,0.73
2017-09-30T18:23:54.319Z,0.60
2017-09-30T18:26:22.606Z,0.57
2017-09-30T18:28:50.148Z,0.63
2017-09-30T18:31:18.407Z,1.10
2017-09-30T18:33:45.925Z,0.70
2017-09-30T18:36:13.512Z,0.60
2017-09-30T18:38:41.052Z,1.43
2017-09-30T18:41:08.549Z,1.93
2017-09-30T18:43:36.821Z,1.13
2017-09-30T18:46:05.122Z,0.80
2017-09-30T18:48:32.647Z,0.60
2017-09-30T18:51:00.256Z,0.90
2017-09-30T18:53:27.862Z,0.57
2017-09-30T18:55:55.400Z,1.37
2017-09-30T18:58:22.909Z,0.60
2017-09-30T19:00:50.441Z,0.60
2017-09-30T19:03:18.742Z,1.20
2017-09-30T19:05:46.249Z,3.27
2017-09-30T19:08:13.791Z,0.63
2017-09-30T19:10:41.320Z,1.23
2017-09-30T19:13:08.828Z,0.70
2017-09-30T19:15:36.401Z,0.60
2017-09-30T19:18:04.700Z,1.80
2017-09-30T19:20:33.012Z,1.80
2017-09-30T19:23:00.514Z,0.70
2017-09-30T19:25:28.776Z,2.57
2017-09-30T19:27:56.326Z,0.77
2017-09-30T19:30:26.314Z,0.90
2017-09-30T19:32:53.832Z,2.10
2017-09-30T19:35:22.183Z,0.63
2017-09-30T19:37:49.687Z,0.67
2017-09-30T19:40:18.368Z,0.80
2017-09-30T19:42:46.211Z,1.23
2017-09-30T19:45:15.917Z,0.90
2017-09-30T19:47:44.215Z,0.90
2017-09-30T19:50:11.721Z,0.97
2017-09-30T19:52:39.278Z,0.70
2017-09-30T19:55:06.770Z,3.40
2017-09-30T19:57:34.349Z,0.63
2017-09-30T20:00:01.853Z,0.90
2017-09-30T20:02:29.376Z,0.60
2017-09-30T20:04:56.912Z,0.60
2017-09-30T20:07:24.437Z,0.53
2017-09-30T20:09:51.985Z,0.67
2017-09-30T20:12:19.495Z,1.60
2017-09-30T20:14:47.036Z,1.60
2017-09-30T20:17:14.565Z,1.40
2017-09-30T20:19:43.436Z,0.87
2017-09-30T20:22:10.944Z,0.60
2017-09-30T20:24:41.435Z,0.70
2017-09-30T20:27:09.122Z,1.47
2017-09-30T20:29:37.394Z,0.90
2017-09-30T20:32:05.717Z,0.70
2017-09-30T20:34:33.231Z,0.60
2017-09-30T20:37:00.804Z,0.87
2017-09-30T20:39:28.301Z,1.07
2017-09-30T20:41:55.815Z,0.77
2017-09-30T20:44:23.373Z,0.50
2017-09-30T20:46:50.891Z,0.50
2017-09-30T20:49:18.410Z,0.60
2017-09-30T20:51:45.972Z,0.60
2017-09-30T20:54:13.493Z,0.50
2017-09-30T20:56:41.000Z,0.50
2017-09-30T20:59:08.559Z,0.73
2017-09-30T21:01:36.132Z,0.70
2017-09-30T21:04:03.688Z,0.70
2017-09-30T21:06:31.221Z,0.80
2017-09-30T21:08:58.751Z,0.60
2017-09-30T21:11:26.290Z,0.50
2017-09-30T21:13:53.950Z,1.20
2017-09-30T21:16:22.265Z,0.50
2017-09-30T21:18:50.565Z,0.50
2017-09-30T21:21:18.078Z,0.70
2017-09-30T21:23:45.629Z,1.23
2017-09-30T21:26:13.134Z,0.50
2017-09-30T21:28:40.711Z,0.50
2017-09-30T21:31:09.442Z,0.53
2017-09-30T21:33:36.984Z,0.60
2017-09-30T21:36:04.571Z,0.40
2017-09-30T21:38:32.301Z,0.60
2017-09-30T21:40:59.833Z,0.60
2017-09-30T21:43:27.572Z,0.43
2017-09-30T21:45:55.144Z,0.50
2017-09-30T21:48:22.679Z,0.50
2017-09-30T21:50:50.221Z,1.27
2017-09-30T21:53:18.639Z,0.87
2017-09-30T21:55:46.166Z,0.50
2017-09-30T21:58:13.718Z,0.67
2017-09-30T22:00:41.249Z,0.60
2017-09-30T22:03:08.758Z,0.60
2017-09-30T22:05:36.444Z,0.40
2017-09-30T22:08:04.717Z,0.80
2017-09-30T22:10:33.001Z,0.50
2017-09-30T22:13:01.302Z,0.97
2017-09-30T22:15:29.226Z,0.57
2017-09-30T22:17:56.835Z,0.40
2017-09-30T22:20:24.363Z,1.33
2017-09-30T22:22:52.678Z,0.60
2017-09-30T22:25:20.185Z,0.60
2017-09-30T22:27:48.513Z,1.37
2017-09-30T22:30:16.022Z,0.40
2017-09-30T22:32:43.611Z,0.50
2017-09-30T22:35:11.124Z,0.50
2017-09-30T22:37:38.616Z,0.60
2017-09-30T22:40:06.229Z,0.70
2017-09-30T22:42:33.758Z,0.70
2017-09-30T22:45:01.328Z,0.70
2017-09-30T22:47:28.853Z,0.70
2017-09-30T22:49:56.386Z,0.50
2017-09-30T22:52:37.795Z,0.77
2017-09-30T22:55:05.296Z,0.50
2017-09-30T22:57:32.827Z,0.80
2017-09-30T23:00:01.017Z,1.00
2017-09-30T23:02:29.254Z,0.70
2017-09-30T23:04:56.755Z,0.70
2017-09-30T23:07:25.190Z,0.87
2017-09-30T23:09:52.766Z,2.00
2017-09-30T23:12:20.283Z,0.70
2017-09-30T23:14:48.629Z,1.00
2017-09-30T23:17:17.064Z,0.60
2017-09-30T23:19:44.625Z,1.70
2017-09-30T23:22:13.063Z,0.77
2017-09-30T23:24:40.628Z,1.00
2017-09-30T23:27:10.085Z,1.17
2017-09-30T23:29:37.614Z,0.73
2017-09-30T23:32:05.124Z,0.80
2017-09-30T23:34:32.906Z,0.70
2017-09-30T23:37:00.437Z,0.80
2017-09-30T23:39:27.937Z,0.70
2017-09-30T23:41:56.058Z,1.37
2017-09-30T23:44:23.598Z,0.70
2017-09-30T23:46:51.910Z,0.80
2017-09-30T23:49:20.340Z,1.63
2017-09-30T23:51:48.791Z,0.50
2017-09-30T23:54:18.105Z,0.60
2017-09-30T23:56:45.608Z,0.80
2017-09-30T23:59:13.590Z,1.57
